createdAt,value
2023-03-31T00:01:42.075Z,61.70
2023-03-31T00:03:45.150Z,61.63
2023-03-31T00:05:48.195Z,61.38
2023-03-31T00:07:54.967Z,61.59
2023-03-31T00:10:10.385Z,61.29
2023-03-31T00:12:20.738Z,61.36
2023-03-31T00:14:23.383Z,61.33
2023-03-31T00:16:26.626Z,61.41
2023-03-31T00:18:30.002Z,60.45
2023-03-31T00:20:33.495Z,60.67
2023-03-31T00:22:38.641Z,61.07
2023-03-31T00:24:41.204Z,60.25
2023-03-31T00:26:44.333Z,60.06
2023-03-31T00:28:48.250Z,60.31
2023-03-31T00:30:51.632Z,60.20
2023-03-31T00:32:54.322Z,59.75
2023-03-31T00:34:57.821Z,59.88
2023-03-31T00:37:02.612Z,59.67
2023-03-31T00:39:08.763Z,59.66
2023-03-31T00:41:11.424Z,59.45
2023-03-31T00:43:28.804Z,60.11
2023-03-31T00:45:32.843Z,60.47
2023-03-31T00:47:36.423Z,60.85
2023-03-31T00:49:41.973Z,61.00
2023-03-31T00:51:46.030Z,61.16
2023-03-31T00:53:55.395Z,61.10
2023-03-31T00:56:03.059Z,61.12
2023-03-31T00:58:08.154Z,61.48
2023-03-31T01:00:14.528Z,61.69
2023-03-31T01:02:20.628Z,61.39
2023-03-31T01:04:23.925Z,61.58
2023-03-31T01:06:30.962Z,61.83
2023-03-31T01:08:36.614Z,62.06
2023-03-31T01:10:42.835Z,62.26
2023-03-31T01:12:48.633Z,62.61
2023-03-31T01:14:51.560Z,61.80
2023-03-31T01:16:54.610Z,61.37
2023-03-31T01:18:58.621Z,61.17
2023-03-31T01:21:31.554Z,60.90
2023-03-31T01:23:59.703Z,60.83
2023-03-31T01:26:38.606Z,60.48
2023-03-31T01:28:44.569Z,60.23
2023-03-31T01:31:06.957Z,59.91
2023-03-31T01:33:32.197Z,59.83
2023-03-31T01:36:04.095Z,59.61
2023-03-31T01:38:41.336Z,59.54
2023-03-31T01:41:02.201Z,59.47
2023-03-31T01:43:11.389Z,59.70
2023-03-31T01:45:24.044Z,60.11
2023-03-31T01:47:32.922Z,59.89
2023-03-31T01:49:42.616Z,59.52
2023-03-31T01:51:50.989Z,59.58
2023-03-31T01:54:03.005Z,59.58
2023-03-31T01:56:14.600Z,59.87
2023-03-31T01:58:22.989Z,59.97
2023-03-31T02:00:33.331Z,59.71
2023-03-31T02:02:40.887Z,59.04
2023-03-31T02:04:49.179Z,58.62
2023-03-31T02:06:57.697Z,58.20
2023-03-31T02:09:05.895Z,58.84
2023-03-31T02:11:10.976Z,59.31
2023-03-31T02:13:16.103Z,59.40
2023-03-31T02:15:26.134Z,59.79
2023-03-31T02:17:30.473Z,60.10
2023-03-31T02:19:36.119Z,61.10
2023-03-31T02:21:41.496Z,61.30
2023-03-31T02:23:46.307Z,62.77
2023-03-31T02:25:52.178Z,64.30
2023-03-31T02:28:00.895Z,65.16
2023-03-31T02:30:04.211Z,64.18
2023-03-31T02:32:15.177Z,65.12
2023-03-31T02:34:17.777Z,65.89
2023-03-31T02:36:21.490Z,66.29
2023-03-31T02:38:24.286Z,66.82
2023-03-31T02:40:27.762Z,67.39
2023-03-31T02:42:30.455Z,67.67
2023-03-31T02:44:34.712Z,67.73
2023-03-31T02:46:37.704Z,68.16
2023-03-31T02:48:44.368Z,68.57
2023-03-31T02:51:02.785Z,68.83
2023-03-31T02:53:14.615Z,69.34
2023-03-31T02:55:19.703Z,69.08
2023-03-31T02:57:42.584Z,69.55
2023-03-31T02:59:58.833Z,70.03
2023-03-31T03:02:11.780Z,70.25
2023-03-31T03:04:34.147Z,70.43
2023-03-31T03:06:43.732Z,70.79
2023-03-31T03:09:01.277Z,70.77
2023-03-31T03:11:11.282Z,71.06
2023-03-31T03:13:21.807Z,70.87
2023-03-31T03:15:29.233Z,70.80
2023-03-31T03:17:36.756Z,70.68
2023-03-31T03:19:39.333Z,71.03
2023-03-31T03:21:41.988Z,71.48
2023-03-31T03:23:44.588Z,71.44
2023-03-31T03:25:48.002Z,71.59
2023-03-31T03:27:52.993Z,71.54
2023-03-31T03:29:56.119Z,71.49
2023-03-31T03:32:00.040Z,71.50
2023-03-31T03:34:03.161Z,71.30
2023-03-31T03:36:06.818Z,71.32
2023-03-31T03:38:09.539Z,71.24
2023-03-31T03:40:12.599Z,71.26
2023-03-31T03:42:15.712Z,71.10
2023-03-31T03:44:18.333Z,71.46
2023-03-31T03:46:21.067Z,71.37
2023-03-31T03:48:25.010Z,71.24
2023-03-31T03:50:27.631Z,71.00
2023-03-31T03:52:30.223Z,70.82
2023-03-31T03:54:32.910Z,70.69
2023-03-31T03:56:35.491Z,70.83
2023-03-31T03:58:38.064Z,70.33
2023-03-31T04:00:40.634Z,69.93
2023-03-31T04:02:43.228Z,70.32
2023-03-31T04:04:47.870Z,70.21
2023-03-31T04:06:50.496Z,70.12
2023-03-31T04:08:53.053Z,70.08
2023-03-31T04:10:55.598Z,70.08
2023-03-31T04:12:58.196Z,69.26
2023-03-31T04:15:00.770Z,69.65
2023-03-31T04:17:03.412Z,69.89
2023-03-31T04:19:06.044Z,69.68
2023-03-31T04:21:12.236Z,69.56
2023-03-31T04:23:14.960Z,69.43
2023-03-31T04:25:17.932Z,69.27
2023-03-31T04:27:21.173Z,68.61
2023-03-31T04:29:26.650Z,68.03
2023-03-31T04:31:30.919Z,68.31
2023-03-31T04:33:38.555Z,68.53
2023-03-31T04:35:48.767Z,68.54
2023-03-31T04:37:58.674Z,68.01
2023-03-31T04:40:08.370Z,67.74
2023-03-31T04:42:11.288Z,67.96
2023-03-31T04:44:13.858Z,67.22
2023-03-31T04:46:16.746Z,67.33
2023-03-31T04:48:19.352Z,67.02
2023-03-31T04:50:22.012Z,66.66
2023-03-31T04:52:24.660Z,67.18
2023-03-31T04:54:28.642Z,66.25
2023-03-31T04:56:31.248Z,66.41
2023-03-31T04:58:33.850Z,66.49
2023-03-31T05:00:36.455Z,66.62
2023-03-31T05:02:39.085Z,66.78
2023-03-31T05:04:41.662Z,66.69
2023-03-31T05:06:44.214Z,67.24
2023-03-31T05:08:46.838Z,67.30
2023-03-31T05:10:50.816Z,67.76
2023-03-31T05:12:53.519Z,67.64
2023-03-31T05:14:56.084Z,68.49
2023-03-31T05:16:59.251Z,68.10
2023-03-31T05:19:01.994Z,68.84
2023-03-31T05:21:15.497Z,68.75
2023-03-31T05:23:21.020Z,69.08
2023-03-31T05:25:24.114Z,69.67
2023-03-31T05:27:28.090Z,69.84
2023-03-31T05:29:31.155Z,70.41
2023-03-31T05:31:33.885Z,71.03
2023-03-31T05:33:40.167Z,71.36
2023-03-31T05:35:42.834Z,71.78
2023-03-31T05:37:45.518Z,72.22
2023-03-31T05:39:48.118Z,72.64
2023-03-31T05:41:50.859Z,72.86
2023-03-31T05:43:54.807Z,73.56
2023-03-31T05:45:57.421Z,73.91
2023-03-31T05:48:00.001Z,74.23
2023-03-31T05:50:04.087Z,74.45
2023-03-31T05:52:07.176Z,74.97
2023-03-31T05:54:09.960Z,74.91
2023-03-31T05:56:12.569Z,75.32
2023-03-31T05:58:15.198Z,75.80
2023-03-31T06:00:19.862Z,76.30
2023-03-31T06:02:22.576Z,76.12
2023-03-31T06:04:25.406Z,76.29
2023-03-31T06:06:28.129Z,76.53
2023-03-31T06:08:30.890Z,76.86
2023-03-31T06:10:33.463Z,76.75
2023-03-31T06:12:36.036Z,77.08
2023-03-31T06:14:38.624Z,76.88
2023-03-31T06:16:42.563Z,77.01
2023-03-31T06:18:45.895Z,77.14
2023-03-31T06:20:48.968Z,77.32
2023-03-31T06:22:51.611Z,77.21
2023-03-31T06:24:54.247Z,77.42
2023-03-31T06:26:56.799Z,77.63
2023-03-31T06:28:59.366Z,77.63
2023-03-31T06:31:03.831Z,77.61
2023-03-31T06:33:08.209Z,77.82
2023-03-31T06:35:11.104Z,78.13
2023-03-31T06:37:13.675Z,78.43
2023-03-31T06:39:16.272Z,78.40
2023-03-31T06:41:20.568Z,78.70
2023-03-31T06:43:23.177Z,78.31
2023-03-31T06:47:28.421Z,78.91
2023-03-31T06:49:32.539Z,78.88
2023-03-31T06:51:35.152Z,79.08
2023-03-31T06:53:38.041Z,78.84
2023-03-31T06:55:40.949Z,78.99
2023-03-31T06:57:43.554Z,79.31
2023-03-31T06:59:46.128Z,78.93
2023-03-31T07:01:50.530Z,78.83
2023-03-31T07:03:53.232Z,79.22
2023-03-31T07:05:57.326Z,76.16
2023-03-31T07:08:02.589Z,77.37
2023-03-31T07:10:06.068Z,78.28
2023-03-31T07:12:10.322Z,78.33
2023-03-31T07:14:12.936Z,76.65
2023-03-31T07:16:15.550Z,76.00
2023-03-31T07:18:19.200Z,75.57
2023-03-31T07:20:21.787Z,76.11
2023-03-31T07:22:26.199Z,77.79
2023-03-31T07:24:28.798Z,79.54
2023-03-31T07:26:31.449Z,78.77
2023-03-31T07:28:34.042Z,79.62
2023-03-31T07:30:36.754Z,78.68
2023-03-31T07:32:41.157Z,79.33
2023-03-31T07:34:43.941Z,78.19
2023-03-31T07:36:46.570Z,78.56
2023-03-31T07:38:50.726Z,78.92
2023-03-31T07:41:05.755Z,77.88
2023-03-31T07:43:12.646Z,79.13
2023-03-31T07:45:16.502Z,79.38
2023-03-31T07:47:19.099Z,77.84
2023-03-31T07:49:21.691Z,78.35
2023-03-31T07:51:26.542Z,76.88
2023-03-31T07:53:29.101Z,77.52
2023-03-31T07:55:33.097Z,77.99
2023-03-31T07:57:36.031Z,76.65
2023-03-31T07:59:38.724Z,77.27
2023-03-31T08:01:41.384Z,76.00
2023-03-31T08:03:44.338Z,75.49
2023-03-31T08:05:46.923Z,76.21
2023-03-31T08:07:51.350Z,77.00
2023-03-31T08:09:53.934Z,76.27
2023-03-31T08:11:57.824Z,76.37
2023-03-31T08:14:00.568Z,74.97
2023-03-31T08:16:03.361Z,74.53
2023-03-31T08:18:06.548Z,73.63
2023-03-31T08:20:10.641Z,75.19
2023-03-31T08:22:13.438Z,75.51
2023-03-31T08:24:16.052Z,75.29
2023-03-31T08:26:19.081Z,72.08
2023-03-31T08:28:23.001Z,71.48
2023-03-31T08:30:25.922Z,70.58
2023-03-31T08:32:28.509Z,71.21
2023-03-31T08:34:31.185Z,70.78
2023-03-31T08:36:34.112Z,68.72
2023-03-31T08:38:39.073Z,68.56
2023-03-31T08:40:42.933Z,69.81
2023-03-31T08:42:48.503Z,68.58
2023-03-31T08:44:59.476Z,68.02
2023-03-31T08:47:03.972Z,69.38
2023-03-31T08:49:08.975Z,67.47
2023-03-31T08:51:16.528Z,66.89
2023-03-31T08:53:23.753Z,66.29
2023-03-31T08:55:32.326Z,67.49
2023-03-31T08:57:44.318Z,68.03
2023-03-31T08:59:48.170Z,67.72
2023-03-31T09:02:01.159Z,68.12
2023-03-31T09:04:19.200Z,68.56
2023-03-31T09:06:28.158Z,68.00
2023-03-31T09:08:37.159Z,68.20
2023-03-31T09:10:48.662Z,63.91
2023-03-31T09:12:57.708Z,62.92
2023-03-31T09:15:02.350Z,62.04
2023-03-31T09:17:18.832Z,62.70
2023-03-31T09:19:32.961Z,64.18
2023-03-31T09:21:40.901Z,60.97
2023-03-31T09:23:47.590Z,61.48
2023-03-31T09:25:51.360Z,60.91
2023-03-31T09:27:57.831Z,59.06
2023-03-31T09:30:04.519Z,59.44
2023-03-31T09:32:16.341Z,59.37
2023-03-31T09:34:23.452Z,58.23
2023-03-31T09:36:26.083Z,59.91
2023-03-31T09:38:31.010Z,59.60
2023-03-31T09:40:35.364Z,61.51
2023-03-31T09:42:39.463Z,58.24
2023-03-31T09:44:44.493Z,58.12
2023-03-31T09:46:47.271Z,58.06
2023-03-31T09:48:56.764Z,58.72
2023-03-31T09:51:02.071Z,59.01
2023-03-31T09:53:06.652Z,57.21
2023-03-31T09:55:35.946Z,57.04
2023-03-31T09:57:41.131Z,58.03
2023-03-31T09:59:45.876Z,56.97
2023-03-31T10:01:53.037Z,56.54
2023-03-31T10:03:58.328Z,56.69
2023-03-31T10:06:01.076Z,55.55
2023-03-31T10:08:24.679Z,54.69
2023-03-31T10:10:33.246Z,54.77
2023-03-31T10:12:36.241Z,53.45
2023-03-31T10:14:44.919Z,53.94
2023-03-31T10:16:51.328Z,55.42
2023-03-31T10:18:53.940Z,56.07
2023-03-31T10:20:59.324Z,54.37
2023-03-31T10:23:07.999Z,54.68
2023-03-31T10:25:17.521Z,54.66
2023-03-31T10:27:24.634Z,54.89
2023-03-31T10:29:31.473Z,55.92
2023-03-31T10:31:37.770Z,55.24
2023-03-31T10:33:45.552Z,54.51
2023-03-31T10:35:51.061Z,54.60
2023-03-31T10:37:58.816Z,53.50
2023-03-31T10:40:04.545Z,54.59
2023-03-31T10:42:07.177Z,54.01
2023-03-31T10:44:35.509Z,50.01
2023-03-31T10:46:43.210Z,50.36
2023-03-31T10:48:46.415Z,50.93
2023-03-31T10:50:49.411Z,48.82
2023-03-31T10:52:52.030Z,48.80
2023-03-31T10:54:59.718Z,48.26
2023-03-31T10:57:05.624Z,49.06
2023-03-31T10:59:20.506Z,50.22
2023-03-31T11:01:34.972Z,49.32
2023-03-31T11:03:57.035Z,48.74
2023-03-31T11:06:06.732Z,49.58
2023-03-31T11:08:26.199Z,47.58
2023-03-31T11:10:43.593Z,48.50
2023-03-31T11:12:53.393Z,48.44
2023-03-31T11:15:04.540Z,45.79
2023-03-31T11:17:19.465Z,45.13
2023-03-31T11:19:37.752Z,48.42
2023-03-31T11:21:56.366Z,48.96
2023-03-31T11:24:08.676Z,52.29
2023-03-31T11:26:18.361Z,65.53
2023-03-31T11:28:30.301Z,71.40
2023-03-31T11:30:39.325Z,75.78
2023-03-31T11:32:54.749Z,79.11
2023-03-31T11:35:14.248Z,78.88
2023-03-31T11:37:41.705Z,81.30
2023-03-31T11:39:55.568Z,81.02
2023-03-31T11:42:03.087Z,80.64
2023-03-31T11:44:10.427Z,82.16
2023-03-31T11:46:16.315Z,80.73
2023-03-31T11:48:27.373Z,78.66
2023-03-31T11:50:33.599Z,79.70
2023-03-31T11:52:40.719Z,79.48
2023-03-31T11:54:46.993Z,76.70
2023-03-31T11:56:50.985Z,77.84
2023-03-31T11:58:56.607Z,79.38
2023-03-31T12:01:06.172Z,78.41
2023-03-31T12:03:14.319Z,78.51
2023-03-31T12:05:18.865Z,74.65
2023-03-31T12:07:27.585Z,71.93
2023-03-31T12:09:38.903Z,72.49
2023-03-31T12:11:45.437Z,72.20
2023-03-31T12:13:54.295Z,71.39
2023-03-31T12:16:06.505Z,69.19
2023-03-31T12:18:14.883Z,68.86
2023-03-31T12:20:26.512Z,67.41
2023-03-31T12:22:34.073Z,67.49
2023-03-31T12:24:37.591Z,65.93
2023-03-31T12:26:51.253Z,65.03
2023-03-31T12:28:59.280Z,66.24
2023-03-31T12:31:05.836Z,68.74
2023-03-31T12:33:17.051Z,67.17
2023-03-31T12:35:23.832Z,67.47
2023-03-31T12:37:53.461Z,66.77
2023-03-31T12:40:10.398Z,68.01
2023-03-31T12:42:33.198Z,64.06
2023-03-31T12:44:48.923Z,62.28
2023-03-31T12:47:18.544Z,60.63
2023-03-31T12:49:33.797Z,62.51
2023-03-31T12:51:52.036Z,61.62
2023-03-31T12:54:10.487Z,61.27
2023-03-31T12:56:13.025Z,61.23
2023-03-31T12:58:41.755Z,62.15
2023-03-31T13:01:06.628Z,61.69
2023-03-31T13:03:46.886Z,59.55
2023-03-31T13:05:49.699Z,58.79
2023-03-31T13:07:52.312Z,57.79
2023-03-31T13:09:58.063Z,57.56
2023-03-31T13:12:08.255Z,58.35
2023-03-31T13:14:17.868Z,57.80
2023-03-31T13:16:21.710Z,57.03
2023-03-31T13:18:25.396Z,57.64
2023-03-31T13:20:35.839Z,57.94
2023-03-31T13:22:41.619Z,56.89
2023-03-31T13:24:44.208Z,56.50
2023-03-31T13:26:48.004Z,56.83
2023-03-31T13:29:11.906Z,56.98
2023-03-31T13:31:16.177Z,58.50
2023-03-31T13:33:24.626Z,57.49
2023-03-31T13:35:33.985Z,57.72
2023-03-31T13:37:58.786Z,57.97
2023-03-31T13:40:33.196Z,59.54
2023-03-31T13:43:02.446Z,58.32
2023-03-31T13:45:19.967Z,59.52
2023-03-31T13:47:57.269Z,59.57
2023-03-31T13:50:18.469Z,61.10
2023-03-31T13:52:32.151Z,61.12
2023-03-31T13:55:03.086Z,60.21
2023-03-31T13:57:39.418Z,64.17
2023-03-31T14:00:04.691Z,64.20
2023-03-31T14:02:48.056Z,68.18
2023-03-31T14:05:08.326Z,67.16
2023-03-31T14:07:15.078Z,67.71
2023-03-31T14:09:26.560Z,68.26
2023-03-31T14:11:31.234Z,66.33
2023-03-31T14:13:33.826Z,65.67
2023-03-31T14:15:38.702Z,65.08
2023-03-31T14:17:43.837Z,61.50
2023-03-31T14:20:01.494Z,63.12
2023-03-31T14:22:13.342Z,62.86
2023-03-31T14:24:19.975Z,62.41
2023-03-31T14:26:39.924Z,63.22
2023-03-31T14:28:58.201Z,63.24
2023-03-31T14:31:20.210Z,63.43
2023-03-31T14:33:37.962Z,64.12
2023-03-31T14:35:50.345Z,62.33
2023-03-31T14:37:53.518Z,62.34
2023-03-31T14:39:58.134Z,63.08
2023-03-31T14:42:06.012Z,63.97
2023-03-31T14:44:15.372Z,63.08
2023-03-31T14:46:22.512Z,63.36
2023-03-31T14:48:25.115Z,62.61
2023-03-31T14:50:32.669Z,62.67
2023-03-31T14:52:35.756Z,63.53
2023-03-31T14:54:38.500Z,62.94
2023-03-31T14:56:41.983Z,62.78
2023-03-31T14:58:50.518Z,64.02
2023-03-31T15:00:54.357Z,63.51
2023-03-31T15:02:58.080Z,63.72
2023-03-31T15:05:03.992Z,61.98
2023-03-31T15:07:07.437Z,63.05
2023-03-31T15:09:18.670Z,63.05
2023-03-31T15:11:22.029Z,62.68
2023-03-31T15:13:34.174Z,62.66
2023-03-31T15:15:38.466Z,63.94
2023-03-31T15:17:43.621Z,62.89
2023-03-31T15:19:46.206Z,61.92
2023-03-31T15:21:56.226Z,62.48
2023-03-31T15:23:59.781Z,62.22
2023-03-31T15:26:08.068Z,61.20
2023-03-31T15:28:14.539Z,60.84
2023-03-31T15:30:19.930Z,58.35
2023-03-31T15:32:27.243Z,58.89
2023-03-31T15:34:34.226Z,59.82
2023-03-31T15:36:36.838Z,59.33
2023-03-31T15:38:39.820Z,59.70
2023-03-31T15:40:44.286Z,59.50
2023-03-31T15:43:01.585Z,59.50
2023-03-31T15:45:39.414Z,59.37
2023-03-31T15:47:50.138Z,59.47
2023-03-31T15:49:58.753Z,58.79
2023-03-31T15:52:02.315Z,59.38
2023-03-31T15:54:12.534Z,59.97
2023-03-31T15:56:31.366Z,59.15
2023-03-31T15:58:55.423Z,59.78
2023-03-31T16:01:04.800Z,58.79
2023-03-31T16:03:15.776Z,58.09
2023-03-31T16:05:43.768Z,58.19
2023-03-31T16:07:54.130Z,58.34
2023-03-31T16:10:00.719Z,57.78
2023-03-31T16:12:06.514Z,59.19
2023-03-31T16:14:14.565Z,58.81
2023-03-31T16:16:21.860Z,58.85
2023-03-31T16:18:31.306Z,58.60
2023-03-31T16:20:37.555Z,59.78
2023-03-31T16:22:42.745Z,60.00
2023-03-31T16:24:45.812Z,60.08
2023-03-31T16:26:49.326Z,59.78
2023-03-31T16:28:53.994Z,60.46
2023-03-31T16:30:58.786Z,60.78
2023-03-31T16:33:03.687Z,60.72
2023-03-31T16:35:08.372Z,60.40
2023-03-31T16:37:11.600Z,59.82
2023-03-31T16:39:14.198Z,60.51
2023-03-31T16:41:17.195Z,61.80
2023-03-31T16:43:21.188Z,63.07
2023-03-31T16:45:23.780Z,64.12
2023-03-31T16:47:35.280Z,65.43
2023-03-31T16:49:39.030Z,67.21
2023-03-31T16:51:42.948Z,66.73
2023-03-31T16:53:46.787Z,68.57
2023-03-31T16:55:50.085Z,67.95
2023-03-31T16:57:52.799Z,65.71
2023-03-31T16:59:57.440Z,66.73
2023-03-31T17:02:01.427Z,67.36
2023-03-31T17:04:04.004Z,68.74
2023-03-31T17:06:08.821Z,68.36
2023-03-31T17:08:13.606Z,68.98
2023-03-31T17:10:17.397Z,68.81
2023-03-31T17:12:20.533Z,69.15
2023-03-31T17:14:23.624Z,69.49
2023-03-31T17:16:32.905Z,70.11
2023-03-31T17:18:48.341Z,70.86
2023-03-31T17:20:51.032Z,71.46
2023-03-31T17:22:54.108Z,71.35
2023-03-31T17:24:58.507Z,71.75
2023-03-31T17:27:01.513Z,70.80
2023-03-31T17:29:04.807Z,70.63
2023-03-31T17:31:12.933Z,70.51
2023-03-31T17:33:16.329Z,70.93
2023-03-31T17:35:21.529Z,70.80
2023-03-31T17:37:24.166Z,71.11
2023-03-31T17:39:27.513Z,71.72
2023-03-31T17:41:32.134Z,72.17
2023-03-31T17:43:35.389Z,71.86
2023-03-31T17:45:38.176Z,71.79
2023-03-31T17:47:41.414Z,70.43
2023-03-31T17:49:44.428Z,70.22
2023-03-31T17:51:47.340Z,70.80
2023-03-31T17:53:49.899Z,71.55
2023-03-31T17:55:52.566Z,72.04
2023-03-31T17:57:57.276Z,72.36
2023-03-31T17:59:59.848Z,71.92
2023-03-31T18:02:02.499Z,70.67
2023-03-31T18:04:05.230Z,70.13
2023-03-31T18:06:11.343Z,68.45
2023-03-31T18:08:14.079Z,68.15
2023-03-31T18:10:18.643Z,68.90
2023-03-31T18:12:21.227Z,69.78
2023-03-31T18:14:25.290Z,69.18
2023-03-31T18:16:30.636Z,69.64
2023-03-31T18:18:34.292Z,69.26
2023-03-31T18:20:36.961Z,69.07
2023-03-31T18:22:39.918Z,69.02
2023-03-31T18:24:42.647Z,68.49
2023-03-31T18:26:45.595Z,68.65
2023-03-31T18:28:48.235Z,68.61
2023-03-31T18:30:53.245Z,68.48
2023-03-31T18:32:55.968Z,69.01
2023-03-31T18:34:58.625Z,68.46
2023-03-31T18:37:01.296Z,69.19
2023-03-31T18:39:04.068Z,69.34
2023-03-31T18:41:07.245Z,69.34
2023-03-31T18:43:11.755Z,69.84
2023-03-31T18:45:14.323Z,69.75
2023-03-31T18:47:18.207Z,68.75
2023-03-31T18:49:21.172Z,69.06
2023-03-31T18:51:23.737Z,68.95
2023-03-31T18:53:26.390Z,69.79
2023-03-31T18:55:29.581Z,70.03
2023-03-31T18:57:32.467Z,68.53
2023-03-31T18:59:35.065Z,68.57
2023-03-31T19:01:40.126Z,69.04
2023-03-31T19:03:44.684Z,69.20
2023-03-31T19:05:47.855Z,69.57
2023-03-31T19:07:51.171Z,69.78
2023-03-31T19:09:53.753Z,68.50
2023-03-31T19:11:57.197Z,67.87
2023-03-31T19:13:59.835Z,67.53
2023-03-31T19:16:02.747Z,67.15
2023-03-31T19:18:06.127Z,67.20
2023-03-31T19:20:16.290Z,68.14
2023-03-31T19:22:19.097Z,68.03
2023-03-31T19:24:21.625Z,68.06
2023-03-31T19:26:28.297Z,68.59
2023-03-31T19:28:32.204Z,69.16
2023-03-31T19:30:35.058Z,69.28
2023-03-31T19:32:37.735Z,68.89
2023-03-31T19:34:40.375Z,68.91
2023-03-31T19:36:44.277Z,67.70
2023-03-31T19:38:46.853Z,67.24
2023-03-31T19:40:49.868Z,67.89
2023-03-31T19:42:52.419Z,67.03
2023-03-31T19:44:54.995Z,65.64
2023-03-31T19:46:58.672Z,65.09
2023-03-31T19:49:01.449Z,64.95
2023-03-31T19:51:05.815Z,66.10
2023-03-31T19:53:09.764Z,63.41
2023-03-31T19:55:12.664Z,63.73
2023-03-31T19:57:15.234Z,64.44
2023-03-31T19:59:17.875Z,64.87
2023-03-31T20:01:22.650Z,63.96
2023-03-31T20:03:28.117Z,64.88
2023-03-31T20:05:32.339Z,63.93
2023-03-31T20:07:35.224Z,65.25
2023-03-31T20:09:39.251Z,63.82
2023-03-31T20:11:43.362Z,64.27
2023-03-31T20:13:46.248Z,64.18
2023-03-31T20:15:48.826Z,64.34
2023-03-31T20:17:51.747Z,64.97
2023-03-31T20:19:55.208Z,65.18
2023-03-31T20:21:57.896Z,65.21
2023-03-31T20:24:00.634Z,64.06
2023-03-31T20:26:04.791Z,64.77
2023-03-31T20:28:07.652Z,64.25
2023-03-31T20:30:10.932Z,64.27
2023-03-31T20:32:17.120Z,63.09
2023-03-31T20:34:22.455Z,64.04
2023-03-31T20:36:27.168Z,63.80
2023-03-31T20:38:29.937Z,62.77
2023-03-31T20:40:32.498Z,63.94
2023-03-31T20:42:37.199Z,63.73
2023-03-31T20:44:39.750Z,64.98
2023-03-31T20:46:43.401Z,66.23
2023-03-31T20:48:47.862Z,66.02
2023-03-31T20:50:51.266Z,66.17
2023-03-31T20:52:53.868Z,65.65
2023-03-31T20:54:56.420Z,65.66
2023-03-31T20:57:00.968Z,66.49
2023-03-31T20:59:06.217Z,65.39
2023-03-31T21:01:09.540Z,65.65
2023-03-31T21:03:12.184Z,65.98
2023-03-31T21:05:14.746Z,65.80
2023-03-31T21:07:17.304Z,66.55
2023-03-31T21:09:19.869Z,66.33
2023-03-31T21:11:24.089Z,66.21
2023-03-31T21:13:27.937Z,65.97
2023-03-31T21:15:32.006Z,65.73
2023-03-31T21:17:34.743Z,65.71
2023-03-31T21:19:37.307Z,66.46
2023-03-31T21:21:41.186Z,66.35
2023-03-31T21:23:44.145Z,66.40
2023-03-31T21:25:48.528Z,65.97
2023-03-31T21:27:51.263Z,65.71
2023-03-31T21:29:53.885Z,65.93
2023-03-31T21:31:57.822Z,64.82
2023-03-31T21:34:02.378Z,64.01
2023-03-31T21:36:05.416Z,64.49
2023-03-31T21:38:08.263Z,63.94
2023-03-31T21:40:12.751Z,63.70
2023-03-31T21:42:15.301Z,62.94
2023-03-31T21:44:17.887Z,63.15
2023-03-31T21:46:22.794Z,64.21
2023-03-31T21:48:26.811Z,64.47
2023-03-31T21:50:29.646Z,64.87
2023-03-31T21:52:32.249Z,65.04
2023-03-31T21:54:34.790Z,63.61
2023-03-31T21:56:37.369Z,63.28
2023-03-31T21:58:39.944Z,62.48
2023-03-31T22:00:42.937Z,62.88
2023-03-31T22:02:45.564Z,62.65
2023-03-31T22:04:49.478Z,62.18
2023-03-31T22:06:52.240Z,61.49
2023-03-31T22:08:54.914Z,61.49
2023-03-31T22:10:59.957Z,61.36
2023-03-31T22:13:02.732Z,61.03
2023-03-31T22:15:06.204Z,60.80
2023-03-31T22:17:08.734Z,61.54
2023-03-31T22:19:13.213Z,61.28
2023-03-31T22:21:20.442Z,62.22
2023-03-31T22:23:23.167Z,61.51
2023-03-31T22:25:25.920Z,62.03
2023-03-31T22:27:28.518Z,62.96
2023-03-31T22:29:32.118Z,63.13
2023-03-31T22:31:34.758Z,64.11
2023-03-31T22:33:37.411Z,65.36
2023-03-31T22:35:40.314Z,64.86
2023-03-31T22:37:44.663Z,64.16
2023-03-31T22:39:47.225Z,64.64
2023-03-31T22:41:50.811Z,64.82
2023-03-31T22:43:53.429Z,64.81
2023-03-31T22:45:56.232Z,65.41
2023-03-31T22:47:58.908Z,65.28
2023-03-31T22:50:01.481Z,65.16
2023-03-31T22:52:04.167Z,65.79
2023-03-31T22:54:08.777Z,65.77
2023-03-31T22:56:12.857Z,66.06
2023-03-31T22:58:15.676Z,66.74
2023-03-31T23:00:18.601Z,66.94
2023-03-31T23:02:21.492Z,66.44
2023-03-31T23:04:24.124Z,67.40
2023-03-31T23:06:27.360Z,67.51
2023-03-31T23:08:29.926Z,67.32
2023-03-31T23:10:34.024Z,67.84
2023-03-31T23:12:36.773Z,67.76
2023-03-31T23:14:39.492Z,67.93
2023-03-31T23:16:42.163Z,68.51
2023-03-31T23:18:46.798Z,68.38
2023-03-31T23:20:49.416Z,68.43
2023-03-31T23:22:53.279Z,68.76
2023-03-31T23:24:55.989Z,68.36
2023-03-31T23:26:59.908Z,69.10
2023-03-31T23:29:02.994Z,69.66
2023-03-31T23:31:06.322Z,68.87
2023-03-31T23:33:09.505Z,68.70
2023-03-31T23:35:12.420Z,67.75
2023-03-31T23:37:15.643Z,68.65
2023-03-31T23:39:18.234Z,69.57
2023-03-31T23:41:22.732Z,69.38
2023-03-31T23:43:30.081Z,69.88
2023-03-31T23:45:33.001Z,69.05
2023-03-31T23:47:36.016Z,68.72
2023-03-31T23:49:38.914Z,68.55
2023-03-31T23:51:41.618Z,68.10
2023-03-31T23:53:44.344Z,68.62
2023-03-31T23:55:54.255Z,67.41
2023-03-31T23:57:57.505Z,66.67
